createdAt,value
2019-03-25T00:01:16.769Z,16.07
2019-03-25T00:03:20.499Z,19.70
2019-03-25T00:05:24.293Z,17.37
2019-03-25T00:07:27.964Z,16.77
2019-03-25T00:09:31.708Z,17.33
2019-03-25T00:11:35.570Z,16.13
2019-03-25T00:13:39.294Z,19.80
2019-03-25T00:15:43.073Z,22.87
2019-03-25T00:17:46.722Z,25.97
2019-03-25T00:19:50.426Z,24.70
2019-03-25T00:21:54.085Z,24.50
2019-03-25T00:23:57.818Z,23.33
2019-03-25T00:26:01.436Z,23.80
2019-03-25T00:28:05.119Z,24.13
2019-03-25T00:30:09.010Z,21.73
2019-03-25T00:32:12.608Z,21.30
2019-03-25T00:34:16.194Z,21.03
2019-03-25T00:36:19.913Z,20.70
2019-03-25T00:38:23.577Z,20.83
2019-03-25T00:40:28.479Z,22.90
2019-03-25T00:42:32.085Z,22.00
2019-03-25T00:44:35.767Z,21.37
2019-03-25T00:46:39.487Z,23.90
2019-03-25T00:48:43.215Z,23.13
2019-03-25T00:50:46.852Z,23.27
2019-03-25T00:52:50.532Z,24.90
2019-03-25T00:54:54.304Z,24.90
2019-03-25T00:56:59.541Z,26.80
2019-03-25T00:59:03.199Z,23.77
2019-03-25T01:01:06.956Z,21.63
2019-03-25T01:03:10.678Z,20.57
2019-03-25T01:05:15.582Z,19.47
2019-03-25T01:07:19.163Z,16.50
2019-03-25T01:09:22.821Z,19.97
2019-03-25T01:11:28.062Z,19.07
2019-03-25T01:13:31.713Z,20.40
2019-03-25T01:15:35.517Z,20.20
2019-03-25T01:17:39.251Z,17.83
2019-03-25T01:19:46.010Z,21.20
2019-03-25T01:21:49.728Z,19.70
2019-03-25T01:23:53.452Z,19.50
2019-03-25T01:25:57.140Z,18.00
2019-03-25T01:28:00.729Z,18.60
2019-03-25T01:30:10.074Z,17.57
2019-03-25T01:32:13.836Z,19.70
2019-03-25T01:34:17.455Z,18.60
2019-03-25T01:36:21.102Z,18.40
2019-03-25T01:38:24.697Z,17.60
2019-03-25T01:40:28.429Z,17.30
2019-03-25T01:42:32.024Z,17.23
2019-03-25T01:44:35.685Z,16.53
2019-03-25T01:46:39.340Z,16.13
2019-03-25T01:48:42.995Z,14.40
2019-03-25T01:50:46.664Z,14.57
2019-03-25T01:52:50.465Z,15.53
2019-03-25T01:54:54.261Z,15.00
2019-03-25T01:56:57.859Z,14.40
2019-03-25T01:59:01.497Z,16.10
2019-03-25T02:01:05.247Z,15.47
2019-03-25T02:03:08.834Z,14.87
2019-03-25T02:05:12.539Z,13.67
2019-03-25T02:07:16.197Z,13.83
2019-03-25T02:09:21.433Z,14.67
2019-03-25T02:11:25.145Z,15.53
2019-03-25T02:13:28.798Z,14.90
2019-03-25T02:15:32.492Z,15.63
2019-03-25T02:17:36.223Z,14.03
2019-03-25T02:19:39.878Z,14.30
2019-03-25T02:21:43.578Z,14.20
2019-03-25T02:23:47.484Z,14.90
2019-03-25T02:25:51.227Z,15.87
2019-03-25T02:27:54.911Z,15.73
2019-03-25T02:29:58.569Z,14.60
2019-03-25T02:32:02.312Z,15.27
2019-03-25T02:34:06.113Z,13.90
2019-03-25T02:36:09.813Z,14.37
2019-03-25T02:38:13.412Z,14.97
2019-03-25T02:40:17.120Z,14.90
2019-03-25T02:42:20.802Z,14.20
2019-03-25T02:44:24.485Z,14.97
2019-03-25T02:46:28.095Z,16.03
2019-03-25T02:48:33.241Z,15.00
2019-03-25T02:50:36.871Z,16.83
2019-03-25T02:52:40.569Z,14.97
2019-03-25T02:54:44.218Z,14.43
2019-03-25T02:56:47.939Z,15.17
2019-03-25T02:58:51.673Z,17.03
2019-03-25T03:00:55.380Z,13.43
2019-03-25T03:02:59.019Z,15.27
2019-03-25T03:05:02.795Z,15.43
2019-03-25T03:07:06.523Z,14.60
2019-03-25T03:09:10.394Z,15.10
2019-03-25T03:11:14.120Z,15.40
2019-03-25T03:13:17.923Z,14.67
2019-03-25T03:15:21.657Z,14.17
2019-03-25T03:17:25.346Z,18.73
2019-03-25T03:19:32.298Z,16.77
2019-03-25T03:21:36.030Z,18.07
2019-03-25T03:23:39.639Z,16.67
2019-03-25T03:25:56.162Z,14.90
2019-03-25T03:27:53.071Z,15.00
2019-03-25T03:29:54.062Z,14.50
2019-03-25T03:31:57.915Z,15.27
2019-03-25T03:34:01.597Z,13.87
2019-03-25T03:36:05.384Z,12.70
2019-03-25T03:38:09.110Z,13.33
2019-03-25T03:40:12.980Z,13.23
2019-03-25T03:42:16.785Z,13.13
2019-03-25T03:44:20.543Z,12.00
2019-03-25T03:46:24.275Z,11.73
2019-03-25T03:48:27.920Z,10.27
2019-03-25T03:50:31.707Z,11.30
2019-03-25T03:52:36.216Z,11.33
2019-03-25T03:54:39.937Z,11.20
2019-03-25T03:56:43.733Z,10.90
2019-03-25T03:58:47.531Z,12.23
2019-03-25T04:00:51.183Z,13.00
2019-03-25T04:02:54.807Z,11.60
2019-03-25T04:04:58.522Z,11.03
2019-03-25T04:07:02.227Z,12.37
2019-03-25T04:09:06.665Z,11.70
2019-03-25T04:11:10.407Z,12.00
2019-03-25T04:13:15.596Z,11.93
2019-03-25T04:15:27.450Z,11.93
2019-03-25T04:17:33.083Z,11.33
2019-03-25T04:19:36.675Z,13.13
2019-03-25T04:21:40.500Z,11.30
2019-03-25T04:23:46.409Z,11.40
2019-03-25T04:25:51.808Z,12.10
2019-03-25T04:27:55.537Z,10.70
2019-03-25T04:29:59.121Z,10.40
2019-03-25T04:32:06.042Z,10.90
2019-03-25T04:34:08.163Z,11.10
2019-03-25T04:36:12.034Z,11.10
2019-03-25T04:38:15.714Z,10.43
2019-03-25T04:40:19.465Z,10.33
2019-03-25T04:42:23.077Z,10.70
2019-03-25T04:44:26.731Z,10.47
2019-03-25T04:46:30.440Z,10.03
2019-03-25T04:48:34.028Z,9.87
2019-03-25T04:50:38.374Z,10.00
2019-03-25T04:52:42.882Z,8.47
2019-03-25T04:54:48.019Z,9.43
2019-03-25T04:56:53.575Z,7.67
2019-03-25T04:58:57.909Z,8.33
2019-03-25T05:01:01.635Z,8.00
2019-03-25T05:03:05.565Z,8.63
2019-03-25T05:05:10.047Z,8.70
2019-03-25T05:07:13.703Z,7.73
2019-03-25T05:09:17.288Z,8.20
2019-03-25T05:11:30.461Z,6.83
2019-03-25T05:13:28.664Z,6.87
2019-03-25T05:15:32.481Z,7.80
2019-03-25T05:17:42.567Z,5.97
2019-03-25T05:19:41.605Z,7.57
2019-03-25T05:21:48.400Z,7.00
2019-03-25T05:23:52.121Z,6.97
2019-03-25T05:25:55.865Z,7.10
2019-03-25T05:27:59.815Z,7.70
2019-03-25T05:30:04.136Z,7.57
2019-03-25T05:32:08.153Z,6.50
2019-03-25T05:34:11.798Z,7.00
2019-03-25T05:36:15.809Z,7.60
2019-03-25T05:38:19.652Z,6.30
2019-03-25T05:40:23.364Z,7.00
2019-03-25T05:42:27.054Z,7.50
2019-03-25T05:44:30.984Z,6.33
2019-03-25T05:46:37.076Z,6.87
2019-03-25T05:48:40.582Z,7.67
2019-03-25T05:50:44.613Z,6.77
2019-03-25T05:52:48.419Z,7.20
2019-03-25T05:54:52.329Z,6.03
2019-03-25T05:57:02.547Z,6.80
2019-03-25T05:59:01.623Z,7.10
2019-03-25T06:01:12.220Z,6.80
2019-03-25T06:03:11.377Z,7.93
2019-03-25T06:05:15.730Z,6.50
2019-03-25T06:07:19.613Z,7.07
2019-03-25T06:09:23.386Z,7.00
2019-03-25T06:11:27.295Z,7.40
2019-03-25T06:13:30.895Z,6.80
2019-03-25T06:15:37.137Z,7.07
2019-03-25T06:17:40.951Z,7.23
2019-03-25T06:19:44.821Z,7.53
2019-03-25T06:21:48.569Z,7.00
2019-03-25T06:23:52.348Z,7.87
2019-03-25T06:25:56.175Z,7.37
2019-03-25T06:27:59.928Z,7.73
2019-03-25T06:30:08.800Z,6.77
2019-03-25T06:32:12.727Z,6.93
2019-03-25T06:34:16.594Z,6.77
2019-03-25T06:36:20.484Z,7.03
2019-03-25T06:38:24.288Z,7.50
2019-03-25T06:40:28.155Z,6.63
2019-03-25T06:42:31.978Z,7.33
2019-03-25T06:44:37.295Z,6.90
2019-03-25T06:46:41.055Z,7.50
2019-03-25T06:48:44.853Z,7.10
2019-03-25T06:50:48.670Z,7.63
2019-03-25T06:52:52.353Z,7.50
2019-03-25T06:54:56.172Z,7.20
2019-03-25T06:57:00.065Z,8.00
2019-03-25T06:59:06.948Z,7.00
2019-03-25T07:01:10.786Z,7.97
2019-03-25T07:03:14.549Z,5.90
2019-03-25T07:05:18.337Z,6.80
2019-03-25T07:07:22.194Z,6.60
2019-03-25T07:09:25.935Z,7.30
2019-03-25T07:11:29.712Z,6.73
2019-03-25T07:13:33.745Z,7.40
2019-03-25T07:15:37.493Z,7.00
2019-03-25T07:17:41.283Z,6.80
2019-03-25T07:19:45.073Z,6.53
2019-03-25T07:21:49.344Z,7.60
2019-03-25T07:23:53.208Z,7.23
2019-03-25T07:25:57.029Z,8.00
2019-03-25T07:28:01.960Z,6.40
2019-03-25T07:30:08.129Z,6.33
2019-03-25T07:32:11.995Z,6.00
2019-03-25T07:34:18.306Z,6.67
2019-03-25T07:36:22.660Z,5.53
2019-03-25T07:38:26.530Z,6.47
2019-03-25T07:40:30.436Z,7.50
2019-03-25T07:42:34.228Z,6.33
2019-03-25T07:44:38.019Z,6.20
2019-03-25T07:46:41.832Z,6.90
2019-03-25T07:48:45.679Z,6.80
2019-03-25T07:50:51.459Z,6.27
2019-03-25T07:52:55.353Z,6.80
2019-03-25T07:54:59.190Z,6.73
2019-03-25T07:57:03.156Z,6.90
2019-03-25T07:59:07.006Z,6.57
2019-03-25T08:01:10.736Z,6.87
2019-03-25T08:03:14.608Z,5.40
2019-03-25T08:05:18.528Z,6.47
2019-03-25T08:07:22.477Z,6.27
2019-03-25T08:09:26.571Z,6.00
2019-03-25T08:11:30.407Z,7.20
2019-03-25T08:13:37.350Z,6.77
2019-03-25T08:15:41.215Z,5.50
2019-03-25T08:17:45.020Z,6.50
2019-03-25T08:19:49.992Z,6.63
2019-03-25T08:21:53.844Z,5.73
2019-03-25T08:23:57.638Z,6.97
2019-03-25T08:26:01.289Z,7.40
2019-03-25T08:28:05.221Z,5.17
2019-03-25T08:30:09.296Z,6.10
2019-03-25T08:32:13.078Z,6.20
2019-03-25T08:34:16.795Z,5.90
2019-03-25T08:36:20.570Z,6.13
2019-03-25T08:38:24.305Z,6.50
2019-03-25T08:40:28.205Z,6.23
2019-03-25T08:42:34.071Z,6.77
2019-03-25T08:44:37.800Z,6.37
2019-03-25T08:46:41.520Z,6.77
2019-03-25T08:48:45.561Z,7.30
2019-03-25T08:50:49.443Z,6.03
2019-03-25T08:52:53.432Z,6.90
2019-03-25T08:54:59.673Z,7.60
2019-03-25T08:57:03.974Z,6.87
2019-03-25T08:59:07.663Z,6.50
2019-03-25T09:01:11.392Z,6.07
2019-03-25T09:03:15.252Z,6.20
2019-03-25T09:05:18.986Z,5.53
2019-03-25T09:07:22.830Z,6.20
2019-03-25T09:09:26.590Z,5.60
2019-03-25T09:11:30.334Z,5.70
2019-03-25T09:13:34.196Z,5.60
2019-03-25T09:15:38.011Z,5.77
2019-03-25T09:17:41.869Z,5.87
2019-03-25T09:19:46.413Z,5.73
2019-03-25T09:21:50.154Z,5.97
2019-03-25T09:23:55.087Z,5.57
2019-03-25T09:25:58.871Z,5.07
2019-03-25T09:28:03.626Z,5.67
2019-03-25T09:30:09.928Z,4.70
2019-03-25T09:32:15.197Z,4.90
2019-03-25T09:34:19.846Z,4.70
2019-03-25T09:36:25.418Z,4.80
2019-03-25T09:38:29.249Z,5.10
2019-03-25T09:40:33.014Z,3.83
2019-03-25T09:42:36.863Z,4.50
2019-03-25T09:44:42.210Z,4.30
2019-03-25T09:46:46.111Z,4.87
2019-03-25T09:48:50.106Z,4.60
2019-03-25T09:50:53.899Z,3.00
2019-03-25T09:52:57.763Z,3.67
2019-03-25T09:55:01.591Z,3.40
2019-03-25T09:57:05.419Z,3.97
2019-03-25T09:59:09.256Z,3.40
2019-03-25T10:01:13.190Z,3.70
2019-03-25T10:03:17.021Z,3.60
2019-03-25T10:05:20.975Z,4.07
2019-03-25T10:07:24.922Z,3.70
2019-03-25T10:09:28.735Z,3.13
2019-03-25T10:11:33.010Z,2.73
2019-03-25T10:13:38.325Z,3.03
2019-03-25T10:15:42.166Z,3.40
2019-03-25T10:17:46.080Z,3.00
2019-03-25T10:19:50.289Z,2.63
2019-03-25T10:21:54.059Z,3.27
2019-03-25T10:23:58.076Z,3.07
2019-03-25T10:26:01.870Z,3.37
2019-03-25T10:28:05.832Z,4.13
2019-03-25T10:30:14.795Z,4.00
2019-03-25T10:32:18.652Z,3.13
2019-03-25T10:34:22.524Z,5.00
2019-03-25T10:36:26.384Z,3.17
2019-03-25T10:38:30.241Z,3.67
2019-03-25T10:40:34.049Z,3.83
2019-03-25T10:42:40.217Z,3.00
2019-03-25T10:44:43.963Z,3.37
2019-03-25T10:46:49.986Z,3.17
2019-03-25T10:48:55.036Z,3.17
2019-03-25T10:50:59.065Z,3.10
2019-03-25T10:53:02.909Z,2.33
2019-03-25T10:55:08.094Z,3.17
2019-03-25T10:57:11.955Z,3.40
2019-03-25T10:59:16.568Z,2.20
2019-03-25T11:01:20.417Z,2.97
2019-03-25T11:03:24.223Z,2.00
2019-03-25T11:05:29.193Z,2.40
2019-03-25T11:07:33.159Z,2.27
2019-03-25T11:09:37.008Z,2.27
2019-03-25T11:11:42.871Z,2.30
2019-03-25T11:13:49.243Z,2.20
2019-03-25T11:15:53.089Z,1.90
2019-03-25T11:17:59.100Z,1.80
2019-03-25T11:20:03.394Z,2.90
2019-03-25T11:22:07.612Z,2.03
2019-03-25T11:24:11.506Z,1.90
2019-03-25T11:26:16.440Z,2.67
2019-03-25T11:28:20.354Z,2.50
2019-03-25T11:30:38.762Z,1.97
2019-03-25T11:32:44.151Z,2.50
2019-03-25T11:34:48.511Z,1.77
2019-03-25T11:36:52.357Z,1.83
2019-03-25T11:38:56.008Z,1.90
2019-03-25T11:40:59.869Z,2.23
2019-03-25T11:43:03.719Z,2.13
2019-03-25T11:45:09.580Z,2.27
2019-03-25T11:47:13.373Z,1.90
2019-03-25T11:49:17.273Z,2.70
2019-03-25T11:51:21.024Z,2.00
2019-03-25T11:53:24.913Z,2.20
2019-03-25T11:55:28.619Z,2.03
2019-03-25T11:57:32.560Z,1.57
2019-03-25T11:59:36.714Z,1.50
2019-03-25T12:01:40.553Z,1.90
2019-03-25T12:03:44.419Z,2.03
2019-03-25T12:05:48.279Z,1.77
2019-03-25T12:07:52.167Z,2.17
2019-03-25T12:09:55.887Z,2.40
2019-03-25T12:11:59.670Z,2.20
2019-03-25T12:14:03.530Z,2.50
2019-03-25T12:16:07.382Z,1.77
2019-03-25T12:18:11.222Z,1.83
2019-03-25T12:20:17.809Z,2.10
2019-03-25T12:22:21.497Z,3.63
2019-03-25T12:24:25.290Z,1.40
2019-03-25T12:26:28.923Z,1.70
2019-03-25T12:28:32.809Z,1.80
2019-03-25T12:30:36.631Z,2.40
2019-03-25T12:32:40.444Z,2.00
2019-03-25T12:34:44.278Z,1.77
2019-03-25T12:36:48.052Z,2.00
2019-03-25T12:38:52.027Z,2.20
2019-03-25T12:40:56.129Z,3.30
2019-03-25T12:42:59.925Z,2.20
2019-03-25T12:45:04.707Z,1.97
2019-03-25T12:47:08.586Z,2.40
2019-03-25T12:49:12.456Z,2.70
2019-03-25T12:51:16.204Z,1.80
2019-03-25T12:53:19.997Z,1.13
2019-03-25T12:55:23.734Z,1.60
2019-03-25T12:57:27.575Z,1.37
2019-03-25T12:59:40.787Z,1.40
2019-03-25T13:01:36.892Z,1.60
2019-03-25T13:03:41.281Z,1.53
2019-03-25T13:05:45.115Z,1.80
2019-03-25T13:07:48.860Z,2.00
2019-03-25T13:09:52.669Z,1.50
2019-03-25T13:11:56.969Z,1.60
2019-03-25T13:14:00.766Z,1.30
2019-03-25T13:16:04.604Z,1.83
2019-03-25T13:18:08.641Z,1.73
2019-03-25T13:20:13.025Z,1.87
2019-03-25T13:22:16.908Z,2.10
2019-03-25T13:24:20.776Z,1.80
2019-03-25T13:26:24.494Z,1.80
2019-03-25T13:28:28.255Z,1.97
2019-03-25T13:30:32.127Z,2.50
2019-03-25T13:32:36.603Z,2.00
2019-03-25T13:34:40.556Z,2.23
2019-03-25T13:36:44.265Z,2.20
2019-03-25T13:38:50.173Z,2.10
2019-03-25T13:40:55.190Z,1.70
2019-03-25T13:42:58.991Z,2.47
2019-03-25T13:45:02.808Z,2.33
2019-03-25T13:47:07.539Z,1.80
2019-03-25T13:49:11.376Z,2.13
2019-03-25T13:51:15.425Z,1.70
2019-03-25T13:53:19.171Z,1.37
2019-03-25T13:55:22.987Z,1.80
2019-03-25T13:57:26.808Z,1.63
2019-03-25T13:59:30.695Z,2.20
2019-03-25T14:01:34.531Z,2.00
2019-03-25T14:03:38.393Z,1.80
2019-03-25T14:05:42.320Z,1.90
2019-03-25T14:07:46.135Z,1.30
2019-03-25T14:09:50.003Z,1.57
2019-03-25T14:11:53.804Z,1.53
2019-03-25T14:13:57.534Z,1.63
2019-03-25T14:16:01.359Z,1.53
2019-03-25T14:18:05.184Z,1.60
2019-03-25T14:20:09.283Z,2.17
2019-03-25T14:22:13.208Z,2.30
2019-03-25T14:24:17.120Z,2.20
2019-03-25T14:26:20.876Z,2.13
2019-03-25T14:28:25.521Z,1.87
2019-03-25T14:30:29.381Z,1.30
2019-03-25T14:32:33.149Z,1.43
2019-03-25T14:34:44.579Z,1.60
2019-03-25T14:36:44.024Z,1.43
2019-03-25T14:38:47.977Z,1.53
2019-03-25T14:40:52.018Z,1.67
2019-03-25T14:42:56.013Z,1.70
2019-03-25T14:44:59.966Z,1.50
2019-03-25T14:47:05.486Z,1.30
2019-03-25T14:49:09.956Z,1.23
2019-03-25T14:51:15.024Z,1.80
2019-03-25T14:53:18.825Z,1.73
2019-03-25T14:55:22.607Z,1.93
2019-03-25T14:57:26.456Z,1.43
2019-03-25T14:59:30.380Z,2.07
2019-03-25T15:01:34.176Z,1.50
2019-03-25T15:03:37.976Z,1.67
2019-03-25T15:05:41.863Z,1.90
2019-03-25T15:07:45.526Z,2.00
2019-03-25T15:09:50.274Z,1.70
2019-03-25T15:11:54.013Z,1.80
2019-03-25T15:14:00.187Z,2.00
2019-03-25T15:16:04.017Z,2.30
2019-03-25T15:18:15.557Z,1.90
2019-03-25T15:20:14.507Z,2.30
2019-03-25T15:22:18.152Z,2.30
2019-03-25T15:24:22.216Z,2.50
2019-03-25T15:26:25.864Z,3.50
2019-03-25T15:28:29.470Z,2.30
2019-03-25T15:30:36.161Z,2.00
2019-03-25T15:32:38.460Z,1.90
2019-03-25T15:34:42.185Z,2.03
2019-03-25T15:36:45.881Z,2.07
2019-03-25T15:38:49.538Z,2.60
2019-03-25T15:40:53.330Z,2.93
2019-03-25T15:42:58.639Z,2.10
2019-03-25T15:45:02.211Z,2.20
2019-03-25T15:47:05.963Z,1.70
2019-03-25T15:49:09.580Z,2.00
2019-03-25T15:51:13.584Z,2.30
2019-03-25T15:53:17.235Z,2.07
2019-03-25T15:55:21.214Z,2.20
2019-03-25T15:57:24.889Z,2.20
2019-03-25T15:59:29.561Z,2.70
2019-03-25T16:01:33.283Z,2.50
2019-03-25T16:03:37.018Z,1.93
2019-03-25T16:05:40.793Z,2.73
2019-03-25T16:07:44.539Z,2.60
2019-03-25T16:09:48.176Z,2.00
2019-03-25T16:11:51.933Z,2.50
2019-03-25T16:13:55.734Z,2.17
2019-03-25T16:15:59.496Z,1.80
2019-03-25T16:18:05.400Z,2.20
2019-03-25T16:20:09.933Z,3.27
2019-03-25T16:22:13.710Z,2.23
2019-03-25T16:24:18.507Z,2.47
2019-03-25T16:26:22.612Z,2.10
2019-03-25T16:28:27.218Z,2.10
2019-03-25T16:30:31.902Z,2.27
2019-03-25T16:32:35.580Z,2.67
2019-03-25T16:34:39.257Z,2.70
2019-03-25T16:36:42.895Z,2.03
2019-03-25T16:38:46.498Z,2.53
2019-03-25T16:40:50.484Z,2.70
2019-03-25T16:42:57.103Z,2.10
2019-03-25T16:45:00.762Z,2.60
2019-03-25T16:47:04.524Z,2.20
2019-03-25T16:49:08.203Z,1.87
2019-03-25T16:51:11.884Z,2.03
2019-03-25T16:53:15.602Z,2.23
2019-03-25T16:55:19.283Z,2.60
2019-03-25T16:57:22.922Z,2.30
2019-03-25T16:59:26.599Z,1.87
2019-03-25T17:01:30.372Z,2.30
2019-03-25T17:03:34.063Z,2.27
2019-03-25T17:05:37.706Z,1.90
2019-03-25T17:07:41.287Z,2.30
2019-03-25T17:09:44.998Z,2.30
2019-03-25T17:11:48.730Z,2.93
2019-03-25T17:13:52.437Z,2.40
2019-03-25T17:15:56.227Z,2.20
2019-03-25T17:17:59.930Z,1.90
2019-03-25T17:20:04.528Z,1.83
2019-03-25T17:22:08.284Z,2.10
2019-03-25T17:24:14.098Z,1.73
2019-03-25T17:26:17.388Z,1.87
2019-03-25T17:28:21.091Z,1.80
2019-03-25T17:30:25.123Z,1.60
2019-03-25T17:32:28.715Z,2.07
2019-03-25T17:34:32.469Z,1.50
2019-03-25T17:36:36.186Z,1.93
2019-03-25T17:38:39.829Z,1.97
2019-03-25T17:40:43.517Z,1.63
2019-03-25T17:42:47.156Z,2.03
2019-03-25T17:44:50.885Z,1.70
2019-03-25T17:46:54.632Z,1.80
2019-03-25T17:48:58.474Z,1.50
2019-03-25T17:51:03.266Z,2.20
2019-03-25T17:53:07.002Z,2.60
2019-03-25T17:55:11.684Z,1.90
2019-03-25T17:57:15.472Z,2.43
2019-03-25T17:59:19.138Z,2.50
2019-03-25T18:01:32.082Z,2.50
2019-03-25T18:03:29.804Z,2.37
2019-03-25T18:05:33.440Z,4.27
2019-03-25T18:07:37.158Z,4.40
2019-03-25T18:09:40.853Z,4.27
2019-03-25T18:11:44.629Z,3.90
2019-03-25T18:13:48.345Z,3.50
2019-03-25T18:15:52.098Z,4.43
2019-03-25T18:17:55.701Z,4.73
2019-03-25T18:20:00.222Z,5.83
2019-03-25T18:22:04.060Z,4.43
2019-03-25T18:24:07.720Z,3.70
2019-03-25T18:26:11.557Z,3.90
2019-03-25T18:28:15.206Z,2.83
2019-03-25T18:30:21.934Z,2.20
2019-03-25T18:32:25.642Z,2.50
2019-03-25T18:34:29.419Z,2.70
2019-03-25T18:36:33.117Z,2.60
2019-03-25T18:38:36.835Z,3.10
2019-03-25T18:40:40.535Z,2.50
2019-03-25T18:42:44.122Z,4.10
2019-03-25T18:44:47.879Z,4.23
2019-03-25T18:46:51.665Z,3.93
2019-03-25T18:48:55.416Z,3.20
2019-03-25T18:50:59.338Z,3.00
2019-03-25T18:53:03.060Z,3.07
2019-03-25T18:55:07.217Z,3.40
2019-03-25T18:57:10.949Z,3.13
2019-03-25T18:59:14.600Z,2.80
2019-03-25T19:01:18.317Z,3.20
2019-03-25T19:03:22.210Z,2.57
2019-03-25T19:05:25.903Z,2.70
2019-03-25T19:07:30.128Z,3.33
2019-03-25T19:09:33.802Z,2.63
2019-03-25T19:11:37.473Z,2.80
2019-03-25T19:13:41.046Z,3.53
2019-03-25T19:15:44.737Z,3.30
2019-03-25T19:17:48.344Z,3.70
2019-03-25T19:19:52.011Z,3.33
2019-03-25T19:21:55.679Z,3.10
2019-03-25T19:23:59.253Z,3.40
2019-03-25T19:26:02.923Z,2.97
2019-03-25T19:28:06.586Z,2.90
2019-03-25T19:30:10.934Z,3.43
2019-03-25T19:32:14.684Z,4.10
2019-03-25T19:34:18.340Z,3.40
2019-03-25T19:36:22.017Z,3.03
2019-03-25T19:38:25.730Z,3.43
2019-03-25T19:40:29.504Z,2.87
2019-03-25T19:42:33.537Z,3.63
2019-03-25T19:44:37.152Z,3.53
2019-03-25T19:46:40.861Z,4.10
2019-03-25T19:48:44.533Z,3.90
2019-03-25T19:50:48.420Z,3.83
2019-03-25T19:52:51.971Z,3.60
2019-03-25T19:54:55.538Z,3.67
2019-03-25T19:56:59.335Z,3.70
2019-03-25T19:59:03.052Z,2.90
2019-03-25T20:01:06.671Z,3.57
2019-03-25T20:03:11.476Z,3.67
2019-03-25T20:05:15.239Z,3.90
2019-03-25T20:07:18.873Z,3.57
2019-03-25T20:09:22.654Z,3.30
2019-03-25T20:11:26.378Z,4.10
2019-03-25T20:13:30.026Z,3.70
2019-03-25T20:15:45.682Z,3.50
2019-03-25T20:17:39.145Z,5.27
2019-03-25T20:19:42.857Z,6.33
2019-03-25T20:21:46.537Z,7.07
2019-03-25T20:23:50.613Z,5.77
2019-03-25T20:25:54.454Z,5.27
2019-03-25T20:27:58.093Z,5.03
2019-03-25T20:30:01.919Z,5.47
2019-03-25T20:32:05.635Z,4.33
2019-03-25T20:34:11.268Z,45.37
2019-03-25T20:36:14.626Z,27.43
2019-03-25T20:38:18.396Z,16.73
2019-03-25T20:40:22.127Z,12.80
2019-03-25T20:42:26.105Z,13.30
2019-03-25T20:44:30.204Z,12.23
2019-03-25T20:46:34.841Z,11.30
2019-03-25T20:48:38.820Z,8.97
2019-03-25T20:50:42.939Z,6.43
2019-03-25T20:52:46.943Z,5.50
2019-03-25T20:54:50.929Z,5.20
2019-03-25T20:56:54.656Z,5.33
2019-03-25T20:58:58.385Z,5.73
2019-03-25T21:01:02.142Z,5.27
2019-03-25T21:03:05.718Z,3.90
2019-03-25T21:05:09.567Z,5.50
2019-03-25T21:07:13.184Z,4.80
2019-03-25T21:09:16.928Z,4.50
2019-03-25T21:11:20.543Z,4.90
2019-03-25T21:13:24.340Z,5.53
2019-03-25T21:15:28.194Z,5.03
2019-03-25T21:17:32.042Z,5.40
2019-03-25T21:19:35.726Z,4.43
2019-03-25T21:21:40.020Z,5.63
2019-03-25T21:23:43.929Z,4.93
2019-03-25T21:25:47.712Z,4.83
2019-03-25T21:27:53.072Z,5.60
2019-03-25T21:29:56.801Z,6.73
2019-03-25T21:32:00.427Z,8.87
2019-03-25T21:34:04.215Z,9.50
2019-03-25T21:36:07.787Z,7.83
2019-03-25T21:38:11.545Z,7.47
2019-03-25T21:40:15.263Z,5.30
2019-03-25T21:42:19.136Z,5.17
2019-03-25T21:44:23.020Z,5.93
2019-03-25T21:46:26.786Z,5.43
2019-03-25T21:48:30.393Z,5.50
2019-03-25T21:50:34.154Z,5.27
2019-03-25T21:52:37.790Z,5.40
2019-03-25T21:54:41.537Z,7.20
2019-03-25T21:56:45.357Z,7.07
2019-03-25T21:58:49.565Z,8.17
2019-03-25T22:00:53.271Z,8.60
2019-03-25T22:02:56.912Z,8.50
2019-03-25T22:05:00.548Z,7.77
2019-03-25T22:07:04.386Z,7.43
2019-03-25T22:09:08.072Z,6.40
2019-03-25T22:11:11.713Z,7.30
2019-03-25T22:13:15.490Z,6.30
2019-03-25T22:15:19.145Z,17.07
2019-03-25T22:17:22.874Z,18.33
2019-03-25T22:19:26.542Z,28.03
2019-03-25T22:21:30.308Z,16.53
2019-03-25T22:23:34.071Z,12.30
2019-03-25T22:25:37.722Z,11.90
2019-03-25T22:27:41.442Z,7.67
2019-03-25T22:29:45.148Z,7.23
2019-03-25T22:31:48.755Z,7.07
2019-03-25T22:33:52.316Z,6.13
2019-03-25T22:35:55.973Z,6.13
2019-03-25T22:37:59.652Z,7.57
2019-03-25T22:40:04.290Z,7.03
2019-03-25T22:42:07.973Z,6.70
2019-03-25T22:44:11.573Z,6.13
2019-03-25T22:46:15.255Z,6.30
2019-03-25T22:48:18.954Z,6.20
2019-03-25T22:50:27.808Z,6.67
2019-03-25T22:52:31.546Z,6.80
2019-03-25T22:54:35.219Z,6.07
2019-03-25T22:56:38.893Z,5.63
2019-03-25T22:58:42.602Z,5.53
2019-03-25T23:00:47.988Z,6.27
2019-03-25T23:02:51.839Z,6.93
2019-03-25T23:04:55.619Z,7.40
2019-03-25T23:06:59.411Z,5.70
2019-03-25T23:09:04.819Z,6.10
2019-03-25T23:11:09.109Z,7.20
2019-03-25T23:13:12.834Z,6.20
2019-03-25T23:15:16.449Z,5.40
2019-03-25T23:17:20.308Z,5.90
2019-03-25T23:19:23.908Z,6.70
2019-03-25T23:21:27.611Z,6.40
2019-03-25T23:23:31.375Z,6.93
2019-03-25T23:25:36.623Z,6.33
2019-03-25T23:27:40.793Z,7.27
2019-03-25T23:29:44.464Z,6.27
2019-03-25T23:31:48.118Z,6.27
2019-03-25T23:33:52.727Z,6.87
2019-03-25T23:35:56.464Z,6.53
2019-03-25T23:38:00.094Z,5.87
2019-03-25T23:40:07.487Z,6.23
2019-03-25T23:42:11.312Z,6.33
2019-03-25T23:44:14.932Z,6.30
2019-03-25T23:46:18.578Z,6.10
2019-03-25T23:48:23.662Z,7.07
2019-03-25T23:50:27.380Z,6.03
2019-03-25T23:52:31.048Z,5.80
2019-03-25T23:54:35.818Z,6.03
2019-03-25T23:56:40.072Z,6.70
2019-03-25T23:58:43.756Z,6.57
